Detalii statie TRANSAVIA GRUP [00001CF7]

Toti senzorii

Date Temperatura solului [C]Precipitatii [mm]Voltaj baterie [mV]HC Air temperature [C]HC Relative humidity [%]Punctul de roua [C]
medieminmaxsumaultimamedieminmaxmediemediemin
2018-02-23 13:00:00 3.2 3 3.6 0 7324 7.37 6.87 8.28 0 0 0
2018-02-23 14:00:00 3.5 3.4 3.9 0 7324 8.47 7.81 8.97 0 0 0
2018-02-23 15:00:00 3.8 3.6 4.1 0 7324 9.37 8.1 10.16 0 0 0
2018-02-23 16:00:00 4.2 4 4.4 0 7332 9.19 8.37 9.97 0 0 0
2018-02-23 17:00:00 4.4 4.1 4.6 0 7206 7.92 7.57 8.44 0 0 0
2018-02-23 18:00:00 4.5 4.3 4.6 0 7060 6.32 4.53 7.53 0 0 0
2018-02-23 19:00:00 4.4 4.4 4.6 0 6992 4.95 4.62 5.4 0 0 0
2018-02-23 20:00:00 4.2 3.9 4.5 0 6972 4.66 4.2 5.04 0 0 0
2018-02-23 21:00:00 4.2 4.1 4.4 0 6952 4.43 4.2 4.66 0 0 0
2018-02-23 22:00:00 4.1 3.9 4.3 0 6942 4.27 4.02 4.53 0 0 0
2018-02-23 23:00:00 4 3.9 4.2 0 6932 3.94 3.85 4.06 0 0 0
2018-02-24 00:00:00 3.9 3.8 4 0 6922 3.68 3.23 3.97 0 0 0
2018-02-24 01:00:00 3.9 3.6 4 0 6914 2.95 2.81 3.26 0 0 0
2018-02-24 02:00:00 3.7 3.6 4 0 6914 2.93 2.87 2.99 0 0 0
2018-02-24 03:00:00 3.7 3.6 3.9 0 6904 2.77 2.67 2.92 0 0 0
2018-02-24 04:00:00 3.6 3.6 3.9 0 6894 2.73 2.65 2.8 0 0 0
2018-02-24 05:00:00 3.7 3.6 3.9 0 6874 2.4 2.17 2.65 0 0 0
2018-02-24 06:00:00 3.6 3.5 3.8 0.2 6854 1.89 1.5 2.14 0 0 0
2018-02-24 07:00:00 3.5 3.5 3.9 0.2 6806 1.04 0.84 1.35 0 0 0
2018-02-24 08:00:00 3.5 3.4 3.7 0.2 6786 0.64 0.47 0.79 0 0 0
2018-02-24 09:00:00 3.4 3.4 3.6 0 6786 0.4 0.2 0.56 0 0 0
2018-02-24 10:00:00 3.3 3.2 3.6 0 6806 0.09 -0.1 0.21 0 0 0
2018-02-24 11:00:00 3.2 3.1 3.5 0 6914 -0.6 -1.05 -0.21 0 0 0
2018-02-24 12:00:00 3.1 2.9 3.2 0 6952 -1.24 -1.5 -0.99 0 0 0
2018-02-24 13:00:00 3 3 3.1 0 7050 -1.44 -1.55 -1.25 0 0 0
2018-02-24 14:00:00 3 3 3.1 0 7186 -1.25 -1.59 -1.03 0 0 0
2018-02-24 15:00:00 3 2.9 3.1 0 7138 -1.14 -1.32 -1 0 0 0
2018-02-24 16:00:00 3 2.9 3.1 0 7128 -0.9 -1.11 -0.72 0 0 0
2018-02-24 17:00:00 3 2.9 3.3 0 7040 -0.59 -0.69 -0.42 0 0 0
2018-02-24 18:00:00 3 2.9 3.1 0 6962 -0.74 -1.09 -0.53 0 0 0
2018-02-24 19:00:00 3 2.9 3.1 0 6894 -1.38 -1.54 -1.07 0 0 0
2018-02-24 20:00:00 2.9 2.7 3.2 0 6874 -1.62 -1.82 -1.46 0 0 0
2018-02-24 21:00:00 2.7 2.6 2.9 0 6854 -1.92 -2.13 -1.79 0 0 0
2018-02-24 22:00:00 2.6 2.5 2.8 0 6834 -2.31 -2.53 -2.13 0 0 0
2018-02-24 23:00:00 2.5 2.5 2.6 0 6844 -2.62 -2.77 -2.49 0 0 0
2018-02-25 00:00:00 2.4 2.3 2.6 0 6844 -2.82 -2.93 -2.67 0 0 0
2018-02-25 01:00:00 2.4 2.3 2.6 0 6826 -3.18 -3.51 -2.87 0 0 0
2018-02-25 02:00:00 2.3 2.2 2.4 0 6826 -3.91 -4.28 -3.54 0 0 0
2018-02-25 03:00:00 2.2 2.1 2.3 0 6816 -4.66 -4.87 -4.34 0 0 0
2018-02-25 04:00:00 2.1 2.1 2.2 0 6826 -4.99 -5.21 -4.83 0 0 0
2018-02-25 05:00:00 2 1.9 2.2 0 6796 -5.3 -5.36 -5.26 0 0 0
2018-02-25 06:00:00 2 1.8 2.1 0 6806 -5.74 -6.09 -5.48 0 0 0
2018-02-25 07:00:00 1.8 1.8 1.9 0 6806 -6.25 -6.49 -6.08 0 0 0
2018-02-25 08:00:00 1.7 1.6 1.8 0 6806 -6.79 -6.92 -6.6 0 0 0
2018-02-25 09:00:00 1.6 1.6 1.8 0 6864 -6.79 -6.94 -6.63 0 0 0
2018-02-25 10:00:00 1.6 1.5 1.8 0 7070 -6.72 -6.85 -6.6 0 0 0
2018-02-25 11:00:00 1.5 1.4 1.6 0 7294 -6.2 -6.76 -5.77 0 0 0
2018-02-25 12:00:00 1.4 1.4 1.5 0 7332 -4.85 -5.56 -4.13 0 0 0